Time;durP1;ratioP1;P1;durP2;ratioP2;P2;SDS_P1;SDS_P2;PMS_P1;PMS_P2;Temp;Humidity;BMP_temperature;BMP_pressure;BME280_temperature;BME280_humidity;BME280_pressure;Samples;Min_cycle;Max_cycle;Signal;HPM_P1;HPM_P2
2023/03/26 00:02:43;;;;;;;3.33;1.10;;;;;;;;;;12954539;22;20015;-82
2023/03/26 00:07:45;;;;;;;2.25;1.02;;;;;;;;;;12980900;22;20008;-83
2023/03/26 00:12:47;;;;;;;3.27;2.27;;;;;;;;;;12905821;23;20004;-83
2023/03/26 00:17:47;;;;;;;2.33;1.10;;;;;;;;;;12859782;23;20090;-83
2023/03/26 00:22:49;;;;;;;1.50;0.93;;;;;;;;;;12879562;23;20279;-81
2023/03/26 00:27:50;;;;;;;2.20;1.02;;;;;;;;;;12887869;23;20023;-82
2023/03/26 00:32:51;;;;;;;4.72;1.17;;;;;;;;;;12906991;23;20012;-80
2023/03/26 00:37:52;;;;;;;4.32;1.33;;;;;;;;;;12877912;22;20318;-82
2023/03/26 00:42:54;;;;;;;2.28;1.08;;;;;;;;;;12855764;23;20432;-82
2023/03/26 00:47:59;;;;;;;3.85;1.17;;;;;;;;;;12904962;23;20083;-81
2023/03/26 00:53:02;;;;;;;3.90;1.20;;;;;;;;;;12877392;22;20018;-81
2023/03/26 00:58:02;;;;;;;4.85;1.40;;;;;;;;;;12903564;23;20074;-81
2023/03/26 01:03:04;;;;;;;4.50;1.42;;;;;;;;;;12900462;22;20107;-81
2023/03/26 01:08:16;;;;;;;4.90;1.25;;;;;;;;;;12879759;23;20739;-82
2023/03/26 01:13:24;;;;;;;3.10;1.13;;;;;;;;;;12854052;23;20123;-80
2023/03/26 01:18:32;;;;;;;3.40;1.33;;;;;;;;;;12903521;23;20318;-80
2023/03/26 01:23:50;;;;;;;8.07;1.67;;;;;;;;;;12906853;23;20024;-80
2023/03/26 01:28:58;;;;;;;3.50;1.23;;;;;;;;;;12881236;23;20376;-78
2023/03/26 01:34:20;;;;;;;4.63;1.00;;;;;;;;;;12905790;23;20024;-79
2023/03/26 01:39:25;;;;;;;6.15;1.58;;;;;;;;;;12910951;23;20074;-80
2023/03/26 01:44:29;;;;;;;8.50;1.83;;;;;;;;;;12912453;23;20398;-80
2023/03/26 01:49:34;;;;;;;5.43;1.67;;;;;;;;;;12922482;23;20197;-82
2023/03/26 01:54:42;;;;;;;5.55;1.30;;;;;;;;;;12896612;22;20012;-81
2023/03/26 01:59:52;;;;;;;5.90;1.23;;;;;;;;;;12926494;23;20016;-79
2023/03/26 02:05:02;;;;;;;3.78;1.33;;;;;;;;;;12909097;23;20035;-81
2023/03/26 02:10:16;;;;;;;4.25;1.40;;;;;;;;;;12908863;23;20016;-82
2023/03/26 02:15:16;;;;;;;4.85;2.17;;;;;;;;;;12882644;23;20091;-82
2023/03/26 02:20:54;;;;;;;6.95;1.83;;;;;;;;;;12908224;22;20123;-81
2023/03/26 02:25:56;;;;;;;5.03;1.30;;;;;;;;;;12879953;23;20008;-82
2023/03/26 02:31:00;;;;;;;4.72;1.40;;;;;;;;;;12855049;23;20098;-81
2023/03/26 02:36:03;;;;;;;8.75;1.70;;;;;;;;;;12910344;22;20012;-81
2023/03/26 02:41:04;;;;;;;4.67;1.40;;;;;;;;;;12931317;23;20086;-79
2023/03/26 02:46:21;;;;;;;5.97;1.40;;;;;;;;;;12858944;23;20099;-83
2023/03/26 02:51:33;;;;;;;4.57;1.67;;;;;;;;;;12878855;22;20020;-80
2023/03/26 02:56:37;;;;;;;5.75;1.58;;;;;;;;;;12878637;23;20456;-81
2023/03/26 03:02:02;;;;;;;6.40;1.63;;;;;;;;;;12807503;23;20031;-81
2023/03/26 03:07:06;;;;;;;3.17;1.67;;;;;;;;;;12859205;22;20027;-83
2023/03/26 03:12:07;;;;;;;7.00;1.55;;;;;;;;;;12880755;23;20050;-83
2023/03/26 03:17:13;;;;;;;8.25;1.83;;;;;;;;;;12945640;23;20012;-84
2023/03/26 03:22:16;;;;;;;5.07;1.42;;;;;;;;;;12956815;22;20496;-85
2023/03/26 03:27:21;;;;;;;4.45;1.55;;;;;;;;;;12924961;23;20042;-81
2023/03/26 03:32:28;;;;;;;4.30;1.50;;;;;;;;;;12939325;23;20012;-82
2023/03/26 03:37:34;;;;;;;4.95;1.55;;;;;;;;;;12905066;23;20471;-80
2023/03/26 03:42:36;;;;;;;7.60;1.83;;;;;;;;;;12875481;23;20742;-82
2023/03/26 03:47:41;;;;;;;5.22;1.98;;;;;;;;;;12946934;22;20011;-80
2023/03/26 03:52:42;;;;;;;6.47;1.67;;;;;;;;;;12915552;22;20019;-79
2023/03/26 03:57:43;;;;;;;5.43;1.73;;;;;;;;;;12959114;22;20031;-80
2023/03/26 04:02:49;;;;;;;6.85;1.85;;;;;;;;;;12915067;22;20019;-82
2023/03/26 04:07:50;;;;;;;4.00;2.20;;;;;;;;;;12941157;22;20193;-81
2023/03/26 04:13:02;;;;;;;7.95;2.28;;;;;;;;;;12971817;22;20012;-78
2023/03/26 04:18:29;;;;;;;4.32;1.50;;;;;;;;;;12938739;22;19988;-79
2023/03/26 04:23:31;;;;;;;10.15;1.80;;;;;;;;;;12915562;22;20028;-79
2023/03/26 04:28:45;;;;;;;5.00;2.20;;;;;;;;;;12939105;22;20012;-79
2023/03/26 04:34:06;;;;;;;5.25;1.90;;;;;;;;;;12907800;22;20091;-80
2023/03/26 04:39:32;;;;;;;5.78;1.88;;;;;;;;;;12904315;23;20008;-79
2023/03/26 04:45:10;;;;;;;7.97;2.17;;;;;;;;;;12881180;23;20734;-78
2023/03/26 04:51:01;;;;;;;6.25;2.40;;;;;;;;;;12893867;22;20460;-79
2023/03/26 04:56:23;;;;;;;3.47;1.67;;;;;;;;;;12859951;23;20027;-79
2023/03/26 05:01:47;;;;;;;5.05;1.95;;;;;;;;;;12883054;22;20020;-79
2023/03/26 05:06:52;;;;;;;6.35;1.75;;;;;;;;;;12857167;22;20090;-80
2023/03/26 05:12:13;;;;;;;5.65;1.73;;;;;;;;;;12884199;23;20019;-78
2023/03/26 05:18:09;;;;;;;4.90;1.80;;;;;;;;;;12914939;23;20020;-78
2023/03/26 05:23:20;;;;;;;3.88;1.42;;;;;;;;;;12928110;22;20024;-80
2023/03/26 05:28:33;;;;;;;4.00;1.92;;;;;;;;;;12921610;23;20018;-78
2023/03/26 05:33:46;;;;;;;4.30;1.65;;;;;;;;;;12876280;22;20012;-78
2023/03/26 05:38:48;;;;;;;6.07;2.03;;;;;;;;;;12883612;23;20012;-78
2023/03/26 05:44:16;;;;;;;7.05;2.13;;;;;;;;;;12866069;23;20024;-78
2023/03/26 05:49:30;;;;;;;3.42;1.98;;;;;;;;;;12934112;23;20023;-78
2023/03/26 05:54:49;;;;;;;4.07;2.05;;;;;;;;;;12911960;23;20099;-78
2023/03/26 06:00:13;;;;;;;2.97;1.50;;;;;;;;;;12909902;23;20099;-79
2023/03/26 06:05:22;;;;;;;3.25;1.60;;;;;;;;;;12920371;22;20024;-81
2023/03/26 06:10:37;;;;;;;7.68;2.42;;;;;;;;;;12941954;23;20012;-79
2023/03/26 06:15:38;;;;;;;7.18;2.58;;;;;;;;;;12893750;23;20076;-79
2023/03/26 06:21:01;;;;;;;4.50;1.98;;;;;;;;;;12881314;23;20401;-80
2023/03/26 06:26:14;;;;;;;3.97;1.90;;;;;;;;;;12884055;23;20024;-80
2023/03/26 06:31:41;;;;;;;6.80;2.00;;;;;;;;;;12861432;23;20134;-81
2023/03/26 06:36:51;;;;;;;3.60;2.10;;;;;;;;;;12880297;23;20031;-83
2023/03/26 06:41:56;;;;;;;4.30;1.90;;;;;;;;;;12913278;22;20403;-83
2023/03/26 06:47:35;;;;;;;4.82;1.70;;;;;;;;;;12700331;23;20048;-80
2023/03/26 06:52:54;;;;;;;5.63;1.70;;;;;;;;;;12713554;23;20045;-81
2023/03/26 06:58:10;;;;;;;2.65;1.70;;;;;;;;;;12800769;22;20333;-79
2023/03/26 07:03:29;;;;;;;5.55;1.70;;;;;;;;;;12881830;23;20027;-79
2023/03/26 07:08:49;;;;;;;3.55;1.60;;;;;;;;;;12885184;23;20020;-79
2023/03/26 07:14:12;;;;;;;6.03;1.90;;;;;;;;;;12879996;23;20047;-78
2023/03/26 07:19:27;;;;;;;6.25;2.00;;;;;;;;;;12879361;23;20772;-80
2023/03/26 07:24:29;;;;;;;9.57;2.33;;;;;;;;;;12877639;22;20020;-79
2023/03/26 07:30:05;;;;;;;8.27;2.40;;;;;;;;;;12897450;23;20345;-78
2023/03/26 07:35:53;;;;;;;5.40;2.15;;;;;;;;;;12632251;23;20581;-79
2023/03/26 07:41:35;;;;;;;3.53;1.58;;;;;;;;;;12847970;22;20028;-79
2023/03/26 07:46:38;;;;;;;3.38;2.00;;;;;;;;;;12910386;22;20016;-77
2023/03/26 07:52:09;;;;;;;7.05;2.10;;;;;;;;;;12855140;23;20016;-77
2023/03/26 07:57:47;;;;;;;6.32;2.08;;;;;;;;;;12874963;23;20011;-77
2023/03/26 08:03:36;;;;;;;5.45;2.10;;;;;;;;;;12885400;23;20004;-76
2023/03/26 08:09:04;;;;;;;4.72;2.60;;;;;;;;;;12912679;22;20449;-80
2023/03/26 08:14:27;;;;;;;5.97;2.28;;;;;;;;;;12930751;22;20020;-80
2023/03/26 08:19:34;;;;;;;5.85;2.13;;;;;;;;;;12932429;23;20004;-80
2023/03/26 08:24:42;;;;;;;6.53;2.58;;;;;;;;;;12916488;23;20020;-77
2023/03/26 08:30:01;;;;;;;5.28;2.28;;;;;;;;;;12903931;23;20004;-78
2023/03/26 08:35:03;;;;;;;3.20;1.80;;;;;;;;;;12904704;23;20012;-80
2023/03/26 08:40:05;;;;;;;7.40;2.00;;;;;;;;;;12904423;23;20008;-79
2023/03/26 08:45:23;;;;;;;4.72;2.03;;;;;;;;;;12901909;23;20012;-80
2023/03/26 08:50:26;;;;;;;4.13;2.03;;;;;;;;;;12903093;22;20711;-78
2023/03/26 08:55:42;;;;;;;6.25;2.42;;;;;;;;;;12874654;22;20008;-76
2023/03/26 09:00:52;;;;;;;6.20;2.03;;;;;;;;;;12848280;23;20008;-79
2023/03/26 09:06:31;;;;;;;7.07;2.22;;;;;;;;;;12900801;22;20028;-81
2023/03/26 09:11:42;;;;;;;5.95;2.13;;;;;;;;;;12684082;23;20346;-78
2023/03/26 09:16:54;;;;;;;8.05;2.70;;;;;;;;;;12708189;23;20373;-78
2023/03/26 09:22:14;;;;;;;5.72;2.50;;;;;;;;;;12816496;23;20901;-79
2023/03/26 09:27:33;;;;;;;10.20;2.85;;;;;;;;;;12875339;22;20012;-77
2023/03/26 09:32:53;;;;;;;10.68;2.53;;;;;;;;;;12870543;22;20058;-78
2023/03/26 09:37:57;;;;;;;8.95;2.78;;;;;;;;;;12899801;23;20012;-84
2023/03/26 09:43:21;;;;;;;5.72;3.00;;;;;;;;;;12849651;23;20163;-80
2023/03/26 09:48:23;;;;;;;12.88;4.35;;;;;;;;;;12876002;23;20015;-80
2023/03/26 09:53:38;;;;;;;7.80;3.30;;;;;;;;;;12877140;22;20014;-82
2023/03/26 09:58:40;;;;;;;;;;;;;;;;;;12877619;22;20401;-78
2023/03/26 10:03:50;;;;;;;7.53;3.03;;;;;;;;;;12878020;23;20059;-82
2023/03/26 10:09:01;;;;;;;9.85;2.85;;;;;;;;;;12886340;23;20027;-81
2023/03/26 10:14:16;;;;;;;8.63;3.95;;;;;;;;;;12913780;23;20043;-80
2023/03/26 10:19:36;;;;;;;10.63;3.03;;;;;;;;;;12903289;23;20064;-80
2023/03/26 10:24:44;;;;;;;7.68;4.05;;;;;;;;;;12880410;22;20023;-80
2023/03/26 10:30:17;;;;;;;8.82;3.47;;;;;;;;;;12877698;23;20012;-80
2023/03/26 10:35:20;;;;;;;10.05;3.30;;;;;;;;;;12899096;23;20012;-77
2023/03/26 10:40:26;;;;;;;8.23;2.90;;;;;;;;;;12875771;23;20012;-78
2023/03/26 10:45:31;;;;;;;5.00;2.70;;;;;;;;;;12877080;23;20015;-78
2023/03/26 10:50:50;;;;;;;6.85;2.97;;;;;;;;;;12876488;23;20012;-77
2023/03/26 10:56:16;;;;;;;11.50;3.63;;;;;;;;;;12902401;23;20012;-80
2023/03/26 11:01:37;;;;;;;6.55;2.60;;;;;;;;;;12867850;23;20043;-81
2023/03/26 11:06:49;;;;;;;5.82;2.65;;;;;;;;;;12909946;22;20093;-78
2023/03/26 11:12:15;;;;;;;4.47;2.13;;;;;;;;;;12885542;23;20118;-81
2023/03/26 11:17:35;;;;;;;4.75;2.25;;;;;;;;;;12875021;22;1137175;-81
2023/03/26 11:22:54;;;;;;;8.38;2.72;;;;;;;;;;12908243;23;20036;-80
2023/03/26 11:28:19;;;;;;;6.00;3.33;;;;;;;;;;12882878;22;20015;-84
2023/03/26 11:33:23;;;;;;;4.88;2.97;;;;;;;;;;12906063;22;20020;-81
2023/03/26 11:38:23;;;;;;;;;;;;;;;;;;12906329;23;20087;-79
2023/03/26 11:43:31;;;;;;;5.38;2.50;;;;;;;;;;12906736;23;19946;-80
2023/03/26 11:48:35;;;;;;;8.55;2.20;;;;;;;;;;12883790;23;20016;-78
2023/03/26 11:53:37;;;;;;;6.68;2.30;;;;;;;;;;12910522;23;20031;-79
2023/03/26 11:58:42;;;;;;;3.75;1.90;;;;;;;;;;12912738;22;20004;-80
2023/03/26 12:03:54;;;;;;;3.08;2.08;;;;;;;;;;12919057;22;20028;-79
2023/03/26 12:08:55;;;;;;;6.18;2.80;;;;;;;;;;12913768;22;20008;-80
2023/03/26 12:14:00;;;;;;;5.50;2.00;;;;;;;;;;12913156;22;20023;-79
2023/03/26 12:19:16;;;;;;;4.07;2.47;;;;;;;;;;12879896;22;20066;-78
2023/03/26 12:24:25;;;;;;;5.47;2.60;;;;;;;;;;12909534;23;20030;-78
2023/03/26 12:29:28;;;;;;;4.03;2.42;;;;;;;;;;12894555;22;20384;-78
2023/03/26 12:34:33;;;;;;;3.17;2.40;;;;;;;;;;12949098;23;20008;-80
2023/03/26 12:39:38;;;;;;;5.72;2.22;;;;;;;;;;12932626;22;20058;-80
2023/03/26 12:44:46;;;;;;;3.47;2.05;;;;;;;;;;12935769;22;20004;-81
2023/03/26 12:49:54;;;;;;;3.28;2.47;;;;;;;;;;12934448;22;20019;-79
2023/03/26 12:55:22;;;;;;;6.30;2.70;;;;;;;;;;12941215;23;20612;-80
2023/03/26 13:00:46;;;;;;;3.00;1.85;;;;;;;;;;12942587;23;20012;-77
2023/03/26 13:06:07;;;;;;;4.68;1.75;;;;;;;;;;12926283;22;20085;-79
2023/03/26 13:11:13;;;;;;;2.97;1.65;;;;;;;;;;12902057;23;20003;-80
2023/03/26 13:16:25;;;;;;;2.67;1.63;;;;;;;;;;12927477;23;20034;-79
2023/03/26 13:21:44;;;;;;;3.50;1.50;;;;;;;;;;12933837;23;20035;-80
2023/03/26 13:27:05;;;;;;;1.77;1.08;;;;;;;;;;12970065;22;20008;-81
2023/03/26 13:32:10;;;;;;;3.78;1.45;;;;;;;;;;12876572;23;20016;-80
2023/03/26 13:37:34;;;;;;;2.85;1.38;;;;;;;;;;12919452;22;20008;-78
2023/03/26 13:42:50;;;;;;;2.50;1.20;;;;;;;;;;12867369;22;20409;-80
2023/03/26 13:47:53;;;;;;;2.05;1.02;;;;;;;;;;12912130;22;20000;-80
2023/03/26 13:53:05;;;;;;;2.80;1.25;;;;;;;;;;12920008;23;20310;-81
2023/03/26 13:58:27;;;;;;;4.53;2.28;;;;;;;;;;12907698;23;20454;-79
2023/03/26 14:03:36;;;;;;;1.55;1.10;;;;;;;;;;12880037;23;20437;-79
2023/03/26 14:08:43;;;;;;;2.17;1.42;;;;;;;;;;12879616;22;20015;-78
2023/03/26 14:14:00;;;;;;;1.83;1.08;;;;;;;;;;12917307;23;20189;-80
2023/03/26 14:19:30;;;;;;;1.60;1.25;;;;;;;;;;12906771;23;20398;-79
2023/03/26 14:24:38;;;;;;;1.23;1.00;;;;;;;;;;12906990;23;20020;-79
2023/03/26 14:29:58;;;;;;;1.90;0.90;;;;;;;;;;12887703;22;20315;-79
2023/03/26 14:35:18;;;;;;;3.08;0.98;;;;;;;;;;12868880;22;20030;-80
2023/03/26 14:40:29;;;;;;;1.60;0.90;;;;;;;;;;12916201;23;20414;-80
2023/03/26 14:45:36;;;;;;;2.00;0.98;;;;;;;;;;12909427;22;20009;-80
2023/03/26 14:51:03;;;;;;;3.33;1.48;;;;;;;;;;12905583;23;20012;-80
2023/03/26 14:56:11;;;;;;;2.28;0.88;;;;;;;;;;12879005;22;20091;-78
2023/03/26 15:01:25;;;;;;;1.50;0.80;;;;;;;;;;12907799;23;20012;-78
2023/03/26 15:06:28;;;;;;;3.22;1.80;;;;;;;;;;12851828;22;20043;-77
2023/03/26 15:11:48;;;;;;;1.92;0.90;;;;;;;;;;12903382;23;20058;-77
2023/03/26 15:17:11;;;;;;;1.45;0.93;;;;;;;;;;12902568;23;20013;-81
2023/03/26 15:22:30;;;;;;;1.50;1.00;;;;;;;;;;12897162;23;20023;-79
2023/03/26 15:27:41;;;;;;;2.55;1.17;;;;;;;;;;12901647;23;20006;-79
2023/03/26 15:33:02;;;;;;;1.65;0.90;;;;;;;;;;12850640;22;20047;-78
2023/03/26 15:38:08;;;;;;;2.83;1.10;;;;;;;;;;12881516;22;20000;-79
2023/03/26 15:43:13;;;;;;;1.90;1.20;;;;;;;;;;12878519;23;20111;-76
2023/03/26 15:48:33;;;;;;;1.77;0.80;;;;;;;;;;12861966;23;20019;-78
2023/03/26 15:53:53;;;;;;;2.78;1.02;;;;;;;;;;12908875;22;20008;-80
2023/03/26 15:58:55;;;;;;;1.85;1.00;;;;;;;;;;12901467;23;20016;-80
2023/03/26 16:04:18;;;;;;;1.63;1.00;;;;;;;;;;12902649;23;20016;-77
2023/03/26 16:09:32;;;;;;;0.75;0.75;;;;;;;;;;12904982;22;20019;-76
2023/03/26 16:14:33;;;;;;;3.53;1.17;;;;;;;;;;12909437;23;20008;-78
2023/03/26 16:19:44;;;;;;;0.88;0.70;;;;;;;;;;12909141;23;20012;-78
2023/03/26 16:24:46;;;;;;;2.15;1.10;;;;;;;;;;12906010;23;20104;-78
2023/03/26 16:29:59;;;;;;;1.80;1.10;;;;;;;;;;12915801;23;20329;-78
2023/03/26 16:35:19;;;;;;;1.60;0.93;;;;;;;;;;12891263;22;20083;-81
2023/03/26 16:40:31;;;;;;;1.52;0.70;;;;;;;;;;12903770;22;20020;-77
2023/03/26 16:45:55;;;;;;;4.25;2.38;;;;;;;;;;12943280;22;19996;-80
2023/03/26 16:51:21;;;;;;;2.65;1.20;;;;;;;;;;12958892;22;20027;-79
2023/03/26 16:56:54;;;;;;;3.60;1.20;;;;;;;;;;12972789;22;20011;-80
2023/03/26 17:02:03;;;;;;;2.28;1.15;;;;;;;;;;12935986;22;20074;-80
2023/03/26 17:07:28;;;;;;;3.28;1.33;;;;;;;;;;12910405;22;20012;-79
2023/03/26 17:13:08;;;;;;;3.13;1.10;;;;;;;;;;12882829;23;20023;-79
2023/03/26 17:18:27;;;;;;;1.98;1.20;;;;;;;;;;12920678;22;20420;-78
2023/03/26 17:23:33;;;;;;;1.98;1.50;;;;;;;;;;12931122;23;20050;-77
2023/03/26 17:29:03;;;;;;;2.67;1.42;;;;;;;;;;12897410;23;20005;-79
2023/03/26 17:34:25;;;;;;;4.22;1.58;;;;;;;;;;12858123;23;20012;-80
2023/03/26 17:40:00;;;;;;;3.28;1.90;;;;;;;;;;12906257;23;20115;-79
2023/03/26 17:45:06;;;;;;;2.95;1.73;;;;;;;;;;12831626;23;20441;-78
2023/03/26 17:50:09;;;;;;;4.55;2.17;;;;;;;;;;12878091;22;20024;-77
2023/03/26 17:55:13;;;;;;;1.98;1.52;;;;;;;;;;12904596;23;20020;-80
2023/03/26 18:00:15;;;;;;;;;;;;;;;;;;12877848;22;20751;-78
2023/03/26 18:05:18;;;;;;;1.95;1.30;;;;;;;;;;12904197;22;19926;-78
2023/03/26 18:10:39;;;;;;;1.42;1.00;;;;;;;;;;12905277;23;20012;-79
2023/03/26 18:15:54;;;;;;;1.73;1.45;;;;;;;;;;12906564;22;20382;-79
2023/03/26 18:20:58;;;;;;;1.50;0.98;;;;;;;;;;12878402;22;20016;-79
2023/03/26 18:26:10;;;;;;;1.55;1.00;;;;;;;;;;12877940;23;20082;-78
2023/03/26 18:31:17;;;;;;;1.95;0.98;;;;;;;;;;12856164;22;20095;-79
2023/03/26 18:36:20;;;;;;;1.75;0.98;;;;;;;;;;12905387;22;20016;-76
2023/03/26 18:41:22;;;;;;;;;;;;;;;;;;12881486;23;20020;-78
2023/03/26 18:46:23;;;;;;;2.00;0.82;;;;;;;;;;12864669;23;20379;-76
2023/03/26 18:51:24;;;;;;;1.38;0.70;;;;;;;;;;12875725;23;20734;-77
2023/03/26 18:56:32;;;;;;;1.08;0.70;;;;;;;;;;12830162;23;20019;-76
2023/03/26 19:01:36;;;;;;;0.82;0.60;;;;;;;;;;12911761;23;20030;-79
2023/03/26 19:06:41;;;;;;;1.48;0.70;;;;;;;;;;12886897;22;20012;-77
2023/03/26 19:11:57;;;;;;;1.17;0.80;;;;;;;;;;12875448;23;20397;-81
2023/03/26 19:17:02;;;;;;;2.63;0.90;;;;;;;;;;12901414;23;20039;-80
2023/03/26 19:22:04;;;;;;;1.85;0.80;;;;;;;;;;12874773;23;20470;-79
2023/03/26 19:27:04;;;;;;;2.83;1.00;;;;;;;;;;12902948;23;20036;-76
2023/03/26 19:32:18;;;;;;;0.80;0.80;;;;;;;;;;12850681;23;20039;-80
2023/03/26 19:37:25;;;;;;;1.92;0.80;;;;;;;;;;12878239;23;20016;-78
2023/03/26 19:42:30;;;;;;;1.13;0.80;;;;;;;;;;12880257;23;20020;-82
2023/03/26 19:47:31;;;;;;;;;;;;;;;;;;12887570;23;20027;-81
2023/03/26 19:52:42;;;;;;;1.17;0.95;;;;;;;;;;12944312;22;20101;-81
2023/03/26 19:57:46;;;;;;;1.77;0.70;;;;;;;;;;12921300;22;20016;-78
2023/03/26 20:02:47;;;;;;;1.52;0.77;;;;;;;;;;12891832;23;20438;-79
2023/03/26 20:07:49;;;;;;;1.52;1.08;;;;;;;;;;12921359;22;20004;-81
2023/03/26 20:12:51;;;;;;;2.28;1.10;;;;;;;;;;12921956;22;20011;-78
2023/03/26 20:17:53;;;;;;;3.45;1.45;;;;;;;;;;12894820;23;20015;-80
2023/03/26 20:22:54;;;;;;;1.20;1.10;;;;;;;;;;12927221;23;20023;-79
2023/03/26 20:27:57;;;;;;;2.50;1.10;;;;;;;;;;12894826;23;20058;-82
2023/03/26 20:33:02;;;;;;;2.67;1.50;;;;;;;;;;12915205;22;20012;-78
2023/03/26 20:38:02;;;;;;;;;;;;;;;;;;12895403;22;20012;-78
2023/03/26 20:43:06;;;;;;;1.60;1.20;;;;;;;;;;12905418;22;19923;-79
2023/03/26 20:48:09;;;;;;;1.70;1.33;;;;;;;;;;12885719;23;20019;-80
2023/03/26 20:53:15;;;;;;;2.10;1.90;;;;;;;;;;12957655;23;20001;-82
2023/03/26 20:58:20;;;;;;;1.75;1.60;;;;;;;;;;12966214;22;19992;-83
2023/03/26 21:03:22;;;;;;;1.60;1.35;;;;;;;;;;12933077;22;20023;-80
2023/03/26 21:08:28;;;;;;;1.70;1.50;;;;;;;;;;12929925;23;20057;-80
2023/03/26 21:13:32;;;;;;;2.60;1.67;;;;;;;;;;12949427;23;20015;-81
2023/03/26 21:18:34;;;;;;;2.08;1.50;;;;;;;;;;12939752;22;20023;-83
2023/03/26 21:23:38;;;;;;;3.20;1.70;;;;;;;;;;12907853;23;20076;-80
2023/03/26 21:28:46;;;;;;;2.55;1.45;;;;;;;;;;12888437;22;20009;-80
2023/03/26 21:33:48;;;;;;;1.40;1.20;;;;;;;;;;12891023;23;20441;-80
2023/03/26 21:38:53;;;;;;;1.52;1.40;;;;;;;;;;12906797;22;20008;-81
2023/03/26 21:43:58;;;;;;;1.50;1.20;;;;;;;;;;12914446;23;20016;-84
2023/03/26 21:49:00;;;;;;;3.55;1.40;;;;;;;;;;12892753;22;20022;-82
2023/03/26 21:54:02;;;;;;;3.53;1.50;;;;;;;;;;12917689;23;20452;-82
2023/03/26 21:59:21;;;;;;;2.28;1.50;;;;;;;;;;12912868;22;20793;-82
2023/03/26 22:04:21;;;;;;;2.05;1.67;;;;;;;;;;12913107;22;20016;-80
2023/03/26 22:09:23;;;;;;;3.57;1.47;;;;;;;;;;12909469;22;20012;-80
2023/03/26 22:14:26;;;;;;;1.87;1.53;;;;;;;;;;12884297;23;20075;-82
2023/03/26 22:19:33;;;;;;;2.13;1.38;;;;;;;;;;12934540;23;20016;-83
2023/03/26 22:24:34;;;;;;;2.20;1.40;;;;;;;;;;12900071;22;20035;-84
2023/03/26 22:29:41;;;;;;;1.20;1.10;;;;;;;;;;12916537;23;20008;-82
2023/03/26 22:34:43;;;;;;;3.15;1.20;;;;;;;;;;12915271;23;20376;-82
2023/03/26 22:39:45;;;;;;;2.13;1.30;;;;;;;;;;12888820;23;20081;-81
2023/03/26 22:44:46;;;;;;;1.70;1.10;;;;;;;;;;12897425;22;20020;-81
2023/03/26 22:49:46;;;;;;;3.38;1.50;;;;;;;;;;12949314;22;20036;-79
2023/03/26 22:54:46;;;;;;;1.77;1.30;;;;;;;;;;12919135;23;20028;-80
2023/03/26 22:59:47;;;;;;;2.15;1.10;;;;;;;;;;12918306;23;20043;-79
2023/03/26 23:04:49;;;;;;;3.70;1.40;;;;;;;;;;12914131;23;20051;-78
2023/03/26 23:09:49;;;;;;;1.65;1.15;;;;;;;;;;12909563;22;20039;-79
2023/03/26 23:14:52;;;;;;;2.50;1.23;;;;;;;;;;12909562;23;20221;-80
2023/03/26 23:19:56;;;;;;;1.55;1.40;;;;;;;;;;12922807;23;20016;-81
2023/03/26 23:24:59;;;;;;;1.60;1.50;;;;;;;;;;12885062;23;20023;-80
2023/03/26 23:30:00;;;;;;;2.25;1.65;;;;;;;;;;12908096;23;20398;-80
2023/03/26 23:35:00;;;;;;;2.15;1.95;;;;;;;;;;12877797;22;20036;-80
2023/03/26 23:40:08;;;;;;;1.95;1.80;;;;;;;;;;12905075;23;20019;-80
2023/03/26 23:45:18;;;;;;;2.78;1.83;;;;;;;;;;12903037;22;20026;-80
2023/03/26 23:50:19;;;;;;;3.72;2.28;;;;;;;;;;12875582;23;20326;-79
2023/03/26 23:55:20;;;;;;;2.78;2.35;;;;;;;;;;12901163;23;20691;-79
